sensor_id;sensor_type;location;lat;lon;timestamp;temperature;humidity
60495;DHT22;46342;49.046;11.920;2023-07-30T00:01:11;21.30;67.10
60495;DHT22;46342;49.046;11.920;2023-07-30T00:03:37;21.30;67.20
60495;DHT22;46342;49.046;11.920;2023-07-30T00:06:02;21.30;67.40
60495;DHT22;46342;49.046;11.920;2023-07-30T00:08:28;21.20;67.40
60495;DHT22;46342;49.046;11.920;2023-07-30T00:10:56;21.20;67.50
60495;DHT22;46342;49.046;11.920;2023-07-30T00:13:22;21.20;67.90
60495;DHT22;46342;49.046;11.920;2023-07-30T00:15:48;21.20;67.60
60495;DHT22;46342;49.046;11.920;2023-07-30T00:18:14;21.10;67.50
60495;DHT22;46342;49.046;11.920;2023-07-30T00:20:41;21.10;67.70
60495;DHT22;46342;49.046;11.920;2023-07-30T00:23:06;21.20;68.90
60495;DHT22;46342;49.046;11.920;2023-07-30T00:25:32;21.10;67.90
60495;DHT22;46342;49.046;11.920;2023-07-30T00:27:58;21.10;67.90
60495;DHT22;46342;49.046;11.920;2023-07-30T00:30:23;21.10;68.00
60495;DHT22;46342;49.046;11.920;2023-07-30T00:32:49;21.10;68.00
60495;DHT22;46342;49.046;11.920;2023-07-30T00:35:14;21.10;68.10
60495;DHT22;46342;49.046;11.920;2023-07-30T00:37:40;21.10;68.30
60495;DHT22;46342;49.046;11.920;2023-07-30T00:40:06;21.10;68.30
60495;DHT22;46342;49.046;11.920;2023-07-30T00:42:32;21.10;68.50
60495;DHT22;46342;49.046;11.920;2023-07-30T00:44:57;21.00;68.40
60495;DHT22;46342;49.046;11.920;2023-07-30T00:47:23;21.00;68.50
60495;DHT22;46342;49.046;11.920;2023-07-30T00:49:49;21.00;68.60
60495;DHT22;46342;49.046;11.920;2023-07-30T00:52:16;21.00;68.70
60495;DHT22;46342;49.046;11.920;2023-07-30T00:54:43;21.00;69.00
60495;DHT22;46342;49.046;11.920;2023-07-30T00:57:10;21.00;68.80
60495;DHT22;46342;49.046;11.920;2023-07-30T00:59:36;21.00;68.80
60495;DHT22;46342;49.046;11.920;2023-07-30T01:02:02;21.00;69.00
60495;DHT22;46342;49.046;11.920;2023-07-30T01:04:28;21.00;69.00
60495;DHT22;46342;49.046;11.920;2023-07-30T01:06:54;21.00;70.00
60495;DHT22;46342;49.046;11.920;2023-07-30T01:09:20;21.00;69.20
60495;DHT22;46342;49.046;11.920;2023-07-30T01:11:46;21.00;69.20
60495;DHT22;46342;49.046;11.920;2023-07-30T01:14:12;21.00;69.20
60495;DHT22;46342;49.046;11.920;2023-07-30T01:16:40;21.00;69.40
60495;DHT22;46342;49.046;11.920;2023-07-30T01:19:06;21.00;69.40
60495;DHT22;46342;49.046;11.920;2023-07-30T01:21:36;21.00;69.40
60495;DHT22;46342;49.046;11.920;2023-07-30T01:24:02;21.00;70.00
60495;DHT22;46342;49.046;11.920;2023-07-30T01:26:34;21.00;69.40
60495;DHT22;46342;49.046;11.920;2023-07-30T01:29:03;21.00;70.30
60495;DHT22;46342;49.046;11.920;2023-07-30T01:31:30;21.00;69.80
60495;DHT22;46342;49.046;11.920;2023-07-30T01:33:59;21.10;69.70
60495;DHT22;46342;49.046;11.920;2023-07-30T01:36:27;21.10;69.90
60495;DHT22;46342;49.046;11.920;2023-07-30T01:38:54;21.10;69.80
60495;DHT22;46342;49.046;11.920;2023-07-30T01:41:19;21.10;69.70
60495;DHT22;46342;49.046;11.920;2023-07-30T01:43:45;21.10;69.70
60495;DHT22;46342;49.046;11.920;2023-07-30T01:46:11;21.10;69.80
60495;DHT22;46342;49.046;11.920;2023-07-30T01:48:36;21.00;69.80
60495;DHT22;46342;49.046;11.920;2023-07-30T01:51:02;21.10;69.90
60495;DHT22;46342;49.046;11.920;2023-07-30T01:53:27;21.10;70.00
60495;DHT22;46342;49.046;11.920;2023-07-30T01:55:53;21.10;70.00
60495;DHT22;46342;49.046;11.920;2023-07-30T01:58:18;21.10;70.00
60495;DHT22;46342;49.046;11.920;2023-07-30T02:00:44;21.10;70.00
60495;DHT22;46342;49.046;11.920;2023-07-30T02:03:10;21.10;70.00
60495;DHT22;46342;49.046;11.920;2023-07-30T02:05:36;21.10;70.00
60495;DHT22;46342;49.046;11.920;2023-07-30T02:08:01;21.10;71.00
60495;DHT22;46342;49.046;11.920;2023-07-30T02:10:27;21.10;70.20
60495;DHT22;46342;49.046;11.920;2023-07-30T02:12:52;21.00;70.10
60495;DHT22;46342;49.046;11.920;2023-07-30T02:15:18;21.10;70.20
60495;DHT22;46342;49.046;11.920;2023-07-30T02:17:43;21.10;70.20
60495;DHT22;46342;49.046;11.920;2023-07-30T02:20:09;21.10;70.30
60495;DHT22;46342;49.046;11.920;2023-07-30T02:22:35;21.10;70.40
60495;DHT22;46342;49.046;11.920;2023-07-30T02:25:00;21.00;70.30
60495;DHT22;46342;49.046;11.920;2023-07-30T02:27:26;21.00;70.20
60495;DHT22;46342;49.046;11.920;2023-07-30T02:29:51;20.90;70.20
60495;DHT22;46342;49.046;11.920;2023-07-30T02:32:17;20.90;70.30
60495;DHT22;46342;49.046;11.920;2023-07-30T02:34:42;20.90;70.40
60495;DHT22;46342;49.046;11.920;2023-07-30T02:37:08;20.90;70.70
60495;DHT22;46342;49.046;11.920;2023-07-30T02:39:33;20.80;70.70
60495;DHT22;46342;49.046;11.920;2023-07-30T02:41:59;20.80;70.70
60495;DHT22;46342;49.046;11.920;2023-07-30T02:44:24;20.80;70.60
60495;DHT22;46342;49.046;11.920;2023-07-30T02:46:50;20.80;70.20
60495;DHT22;46342;49.046;11.920;2023-07-30T02:49:16;20.70;70.20
60495;DHT22;46342;49.046;11.920;2023-07-30T02:51:41;20.70;70.30
60495;DHT22;46342;49.046;11.920;2023-07-30T02:54:08;20.60;70.50
60495;DHT22;46342;49.046;11.920;2023-07-30T02:56:35;20.60;70.50
60495;DHT22;46342;49.046;11.920;2023-07-30T02:59:01;20.60;70.50
60495;DHT22;46342;49.046;11.920;2023-07-30T03:01:26;20.60;70.60
60495;DHT22;46342;49.046;11.920;2023-07-30T03:03:52;20.60;70.50
60495;DHT22;46342;49.046;11.920;2023-07-30T03:06:17;20.50;70.50
60495;DHT22;46342;49.046;11.920;2023-07-30T03:08:43;20.50;70.50
60495;DHT22;46342;49.046;11.920;2023-07-30T03:11:09;20.50;70.70
60495;DHT22;46342;49.046;11.920;2023-07-30T03:13:34;20.50;71.70
60495;DHT22;46342;49.046;11.920;2023-07-30T03:16:00;20.50;71.70
60495;DHT22;46342;49.046;11.920;2023-07-30T03:18:25;20.50;70.90
60495;DHT22;46342;49.046;11.920;2023-07-30T03:20:51;20.50;70.90
60495;DHT22;46342;49.046;11.920;2023-07-30T03:23:22;20.50;71.80
60495;DHT22;46342;49.046;11.920;2023-07-30T03:25:47;20.50;70.90
60495;DHT22;46342;49.046;11.920;2023-07-30T03:28:13;20.50;71.00
60495;DHT22;46342;49.046;11.920;2023-07-30T03:30:38;20.50;70.90
60495;DHT22;46342;49.046;11.920;2023-07-30T03:33:04;20.50;71.00
60495;DHT22;46342;49.046;11.920;2023-07-30T03:35:29;20.40;71.00
60495;DHT22;46342;49.046;11.920;2023-07-30T03:37:55;20.40;71.00
60495;DHT22;46342;49.046;11.920;2023-07-30T03:40:21;20.40;71.00
60495;DHT22;46342;49.046;11.920;2023-07-30T03:42:46;20.40;71.00
60495;DHT22;46342;49.046;11.920;2023-07-30T03:45:12;20.40;71.90
60495;DHT22;46342;49.046;11.920;2023-07-30T03:47:37;20.40;71.00
60495;DHT22;46342;49.046;11.920;2023-07-30T03:50:03;20.40;70.90
60495;DHT22;46342;49.046;11.920;2023-07-30T03:52:28;20.40;70.90
60495;DHT22;46342;49.046;11.920;2023-07-30T03:54:54;20.40;71.00
60495;DHT22;46342;49.046;11.920;2023-07-30T03:57:19;20.40;71.10
60495;DHT22;46342;49.046;11.920;2023-07-30T03:59:45;20.40;71.20
60495;DHT22;46342;49.046;11.920;2023-07-30T04:02:11;20.40;71.20
60495;DHT22;46342;49.046;11.920;2023-07-30T04:04:41;20.30;71.10
60495;DHT22;46342;49.046;11.920;2023-07-30T04:07:07;20.40;71.20
60495;DHT22;46342;49.046;11.920;2023-07-30T04:09:33;20.40;71.20
60495;DHT22;46342;49.046;11.920;2023-07-30T04:11:58;20.40;71.30
60495;DHT22;46342;49.046;11.920;2023-07-30T04:14:24;20.30;71.20
60495;DHT22;46342;49.046;11.920;2023-07-30T04:16:49;20.30;71.30
60495;DHT22;46342;49.046;11.920;2023-07-30T04:19:15;20.30;71.30
60495;DHT22;46342;49.046;11.920;2023-07-30T04:21:40;20.30;71.30
60495;DHT22;46342;49.046;11.920;2023-07-30T04:24:06;20.30;71.30
60495;DHT22;46342;49.046;11.920;2023-07-30T04:26:31;20.30;71.30
60495;DHT22;46342;49.046;11.920;2023-07-30T04:28:57;20.30;71.40
60495;DHT22;46342;49.046;11.920;2023-07-30T04:31:22;20.20;71.20
60495;DHT22;46342;49.046;11.920;2023-07-30T04:33:48;20.30;71.40
60495;DHT22;46342;49.046;11.920;2023-07-30T04:36:14;20.20;71.30
60495;DHT22;46342;49.046;11.920;2023-07-30T04:38:39;20.30;71.50
60495;DHT22;46342;49.046;11.920;2023-07-30T04:41:05;20.30;72.30
60495;DHT22;46342;49.046;11.920;2023-07-30T04:43:30;20.20;71.30
60495;DHT22;46342;49.046;11.920;2023-07-30T04:45:56;20.20;71.40
60495;DHT22;46342;49.046;11.920;2023-07-30T04:48:21;20.20;71.50
60495;DHT22;46342;49.046;11.920;2023-07-30T04:50:47;20.20;71.50
60495;DHT22;46342;49.046;11.920;2023-07-30T04:53:12;20.20;71.60
60495;DHT22;46342;49.046;11.920;2023-07-30T04:55:38;20.10;71.60
60495;DHT22;46342;49.046;11.920;2023-07-30T04:58:04;20.20;71.80
60495;DHT22;46342;49.046;11.920;2023-07-30T05:00:29;20.20;71.80
60495;DHT22;46342;49.046;11.920;2023-07-30T05:02:55;20.20;71.90
60495;DHT22;46342;49.046;11.920;2023-07-30T05:05:21;20.20;71.90
60495;DHT22;46342;49.046;11.920;2023-07-30T05:07:46;20.20;72.00
60495;DHT22;46342;49.046;11.920;2023-07-30T05:10:12;20.20;72.20
60495;DHT22;46342;49.046;11.920;2023-07-30T05:12:37;20.20;72.30
60495;DHT22;46342;49.046;11.920;2023-07-30T05:15:03;20.20;72.40
60495;DHT22;46342;49.046;11.920;2023-07-30T05:17:29;20.20;72.60
60495;DHT22;46342;49.046;11.920;2023-07-30T05:19:55;20.30;72.70
60495;DHT22;46342;49.046;11.920;2023-07-30T05:22:21;20.30;72.80
60495;DHT22;46342;49.046;11.920;2023-07-30T05:24:46;20.30;72.80
60495;DHT22;46342;49.046;11.920;2023-07-30T05:27:12;20.30;72.80
60495;DHT22;46342;49.046;11.920;2023-07-30T05:29:38;20.40;72.90
60495;DHT22;46342;49.046;11.920;2023-07-30T05:32:04;20.40;72.90
60495;DHT22;46342;49.046;11.920;2023-07-30T05:34:30;20.40;72.90
60495;DHT22;46342;49.046;11.920;2023-07-30T05:36:55;20.40;72.90
60495;DHT22;46342;49.046;11.920;2023-07-30T05:39:21;20.40;72.90
60495;DHT22;46342;49.046;11.920;2023-07-30T05:41:46;20.40;73.00
60495;DHT22;46342;49.046;11.920;2023-07-30T05:44:12;20.50;73.20
60495;DHT22;46342;49.046;11.920;2023-07-30T05:46:37;20.40;73.10
60495;DHT22;46342;49.046;11.920;2023-07-30T05:49:03;20.50;73.20
60495;DHT22;46342;49.046;11.920;2023-07-30T05:51:28;20.50;73.00
60495;DHT22;46342;49.046;11.920;2023-07-30T05:53:54;20.50;73.00
60495;DHT22;46342;49.046;11.920;2023-07-30T05:56:19;20.60;73.00
60495;DHT22;46342;49.046;11.920;2023-07-30T05:58:45;20.50;73.00
60495;DHT22;46342;49.046;11.920;2023-07-30T06:01:11;20.60;73.10
60495;DHT22;46342;49.046;11.920;2023-07-30T06:03:37;20.60;73.10
60495;DHT22;46342;49.046;11.920;2023-07-30T06:06:02;20.60;73.00
60495;DHT22;46342;49.046;11.920;2023-07-30T06:08:28;20.60;72.90
60495;DHT22;46342;49.046;11.920;2023-07-30T06:10:55;20.60;72.80
60495;DHT22;46342;49.046;11.920;2023-07-30T06:13:20;20.60;73.60
60495;DHT22;46342;49.046;11.920;2023-07-30T06:15:46;20.60;72.60
60495;DHT22;46342;49.046;11.920;2023-07-30T06:18:12;20.70;72.70
60495;DHT22;46342;49.046;11.920;2023-07-30T06:20:37;20.70;72.70
60495;DHT22;46342;49.046;11.920;2023-07-30T06:23:03;20.70;72.70
60495;DHT22;46342;49.046;11.920;2023-07-30T06:25:29;20.70;72.60
60495;DHT22;46342;49.046;11.920;2023-07-30T06:27:55;20.70;72.40
60495;DHT22;46342;49.046;11.920;2023-07-30T06:30:24;20.70;72.20
60495;DHT22;46342;49.046;11.920;2023-07-30T06:32:50;20.70;72.30
60495;DHT22;46342;49.046;11.920;2023-07-30T06:35:15;20.70;72.20
60495;DHT22;46342;49.046;11.920;2023-07-30T06:37:41;20.70;72.20
60495;DHT22;46342;49.046;11.920;2023-07-30T06:40:07;20.70;72.30
60495;DHT22;46342;49.046;11.920;2023-07-30T06:42:33;20.70;72.50
60495;DHT22;46342;49.046;11.920;2023-07-30T06:44:58;20.70;72.20
60495;DHT22;46342;49.046;11.920;2023-07-30T06:47:24;20.70;72.20
60495;DHT22;46342;49.046;11.920;2023-07-30T06:49:50;20.80;72.60
60495;DHT22;46342;49.046;11.920;2023-07-30T06:52:15;20.70;72.60
60495;DHT22;46342;49.046;11.920;2023-07-30T06:54:41;20.70;72.80
60495;DHT22;46342;49.046;11.920;2023-07-30T06:57:06;20.80;73.10
60495;DHT22;46342;49.046;11.920;2023-07-30T06:59:34;20.80;73.30
60495;DHT22;46342;49.046;11.920;2023-07-30T07:01:59;20.80;73.50
60495;DHT22;46342;49.046;11.920;2023-07-30T07:04:25;20.90;73.40
60495;DHT22;46342;49.046;11.920;2023-07-30T07:06:51;20.90;74.40
60495;DHT22;46342;49.046;11.920;2023-07-30T07:09:16;20.90;73.40
60495;DHT22;46342;49.046;11.920;2023-07-30T07:11:43;21.00;73.40
60495;DHT22;46342;49.046;11.920;2023-07-30T07:14:08;21.00;73.40
60495;DHT22;46342;49.046;11.920;2023-07-30T07:16:34;21.00;73.40
60495;DHT22;46342;49.046;11.920;2023-07-30T07:19:00;21.00;73.40
60495;DHT22;46342;49.046;11.920;2023-07-30T07:21:25;21.10;73.50
60495;DHT22;46342;49.046;11.920;2023-07-30T07:23:52;21.10;73.50
60495;DHT22;46342;49.046;11.920;2023-07-30T07:26:17;21.10;73.60
60495;DHT22;46342;49.046;11.920;2023-07-30T07:31:09;21.20;73.00
60495;DHT22;46342;49.046;11.920;2023-07-30T07:33:34;21.20;73.70
60495;DHT22;46342;49.046;11.920;2023-07-30T07:36:04;21.20;73.60
60495;DHT22;46342;49.046;11.920;2023-07-30T07:38:31;21.30;74.10
60495;DHT22;46342;49.046;11.920;2023-07-30T07:40:57;21.30;73.70
60495;DHT22;46342;49.046;11.920;2023-07-30T07:43:23;21.40;73.60
60495;DHT22;46342;49.046;11.920;2023-07-30T07:45:49;21.40;73.70
60495;DHT22;46342;49.046;11.920;2023-07-30T07:48:14;21.40;73.60
60495;DHT22;46342;49.046;11.920;2023-07-30T07:50:40;21.50;73.50
60495;DHT22;46342;49.046;11.920;2023-07-30T07:53:05;21.50;73.50
60495;DHT22;46342;49.046;11.920;2023-07-30T07:55:31;21.50;73.40
60495;DHT22;46342;49.046;11.920;2023-07-30T07:57:57;21.60;73.40
60495;DHT22;46342;49.046;11.920;2023-07-30T08:00:22;21.60;73.20
60495;DHT22;46342;49.046;11.920;2023-07-30T08:02:48;21.60;73.10
60495;DHT22;46342;49.046;11.920;2023-07-30T08:05:13;21.60;73.00
60495;DHT22;46342;49.046;11.920;2023-07-30T08:07:39;21.60;73.00
60495;DHT22;46342;49.046;11.920;2023-07-30T08:10:05;21.60;72.80
60495;DHT22;46342;49.046;11.920;2023-07-30T08:12:32;21.70;73.00
60495;DHT22;46342;49.046;11.920;2023-07-30T08:14:58;21.70;73.30
60495;DHT22;46342;49.046;11.920;2023-07-30T08:19:50;21.80;73.00
60495;DHT22;46342;49.046;11.920;2023-07-30T08:22:15;21.80;73.90
60495;DHT22;46342;49.046;11.920;2023-07-30T08:24:41;21.90;73.80
60495;DHT22;46342;49.046;11.920;2023-07-30T08:27:07;21.90;73.90
60495;DHT22;46342;49.046;11.920;2023-07-30T08:29:32;22.00;73.90
60495;DHT22;46342;49.046;11.920;2023-07-30T08:36:50;23.40;92.10
60495;DHT22;46342;49.046;11.920;2023-07-30T08:41:41;22.40;73.30
60495;DHT22;46342;49.046;11.920;2023-07-30T08:44:07;22.40;74.20
60495;DHT22;46342;49.046;11.920;2023-07-30T08:49:00;22.60;73.30
60495;DHT22;46342;49.046;11.920;2023-07-30T08:51:26;22.70;73.50
60495;DHT22;46342;49.046;11.920;2023-07-30T08:53:52;22.70;73.30
60495;DHT22;46342;49.046;11.920;2023-07-30T08:56:19;22.80;73.10
60495;DHT22;46342;49.046;11.920;2023-07-30T08:58:46;22.90;73.00
60495;DHT22;46342;49.046;11.920;2023-07-30T09:01:12;22.90;72.80
60495;DHT22;46342;49.046;11.920;2023-07-30T09:03:40;23.00;72.60
60495;DHT22;46342;49.046;11.920;2023-07-30T09:06:06;23.00;72.50
60495;DHT22;46342;49.046;11.920;2023-07-30T09:08:32;23.00;72.30
60495;DHT22;46342;49.046;11.920;2023-07-30T09:11:10;23.10;72.40
60495;DHT22;46342;49.046;11.920;2023-07-30T09:13:40;23.40;90.70
60495;DHT22;46342;49.046;11.920;2023-07-30T09:16:10;23.20;72.80
60495;DHT22;46342;49.046;11.920;2023-07-30T09:18:40;23.90;91.00
60495;DHT22;46342;49.046;11.920;2023-07-30T09:21:06;23.20;72.20
60495;DHT22;46342;49.046;11.920;2023-07-30T09:23:32;22.90;90.10
60495;DHT22;46342;49.046;11.920;2023-07-30T09:26:00;23.30;72.10
60495;DHT22;46342;49.046;11.920;2023-07-30T09:28:31;23.30;71.70
60495;DHT22;46342;49.046;11.920;2023-07-30T09:31:03;23.30;71.40
60495;DHT22;46342;49.046;11.920;2023-07-30T09:33:31;23.90;87.70
60495;DHT22;46342;49.046;11.920;2023-07-30T09:35:57;23.30;71.30
60495;DHT22;46342;49.046;11.920;2023-07-30T09:38:23;23.20;70.90
60495;DHT22;46342;49.046;11.920;2023-07-30T09:40:49;23.20;71.10
60495;DHT22;46342;49.046;11.920;2023-07-30T09:43:15;23.20;71.10
60495;DHT22;46342;49.046;11.920;2023-07-30T09:45:46;23.20;71.20
60495;DHT22;46342;49.046;11.920;2023-07-30T09:48:14;23.20;71.60
60495;DHT22;46342;49.046;11.920;2023-07-30T09:50:40;23.10;71.50
60495;DHT22;46342;49.046;11.920;2023-07-30T09:53:07;23.10;71.40
60495;DHT22;46342;49.046;11.920;2023-07-30T09:55:34;23.10;71.20
60495;DHT22;46342;49.046;11.920;2023-07-30T09:58:00;23.00;70.90
60495;DHT22;46342;49.046;11.920;2023-07-30T10:00:27;23.00;70.90
60495;DHT22;46342;49.046;11.920;2023-07-30T10:02:53;23.00;70.70
60495;DHT22;46342;49.046;11.920;2023-07-30T10:05:24;22.90;69.30
60495;DHT22;46342;49.046;11.920;2023-07-30T10:08:03;22.90;71.10
60495;DHT22;46342;49.046;11.920;2023-07-30T10:10:31;22.90;70.30
60495;DHT22;46342;49.046;11.920;2023-07-30T10:13:00;22.80;70.10
60495;DHT22;46342;49.046;11.920;2023-07-30T10:15:27;22.70;70.40
60495;DHT22;46342;49.046;11.920;2023-07-30T10:17:52;22.60;70.30
60495;DHT22;46342;49.046;11.920;2023-07-30T10:20:27;22.60;70.50
60495;DHT22;46342;49.046;11.920;2023-07-30T10:22:57;22.60;71.50
60495;DHT22;46342;49.046;11.920;2023-07-30T10:25:29;22.80;90.60
60495;DHT22;46342;49.046;11.920;2023-07-30T10:27:55;22.60;72.60
60495;DHT22;46342;49.046;11.920;2023-07-30T10:30:21;22.60;72.00
60495;DHT22;46342;49.046;11.920;2023-07-30T10:33:13;22.50;71.90
60495;DHT22;46342;49.046;11.920;2023-07-30T10:35:44;22.60;73.00
60495;DHT22;46342;49.046;11.920;2023-07-30T10:41:18;22.70;72.70
60495;DHT22;46342;49.046;11.920;2023-07-30T10:43:50;21.70;91.30
60495;DHT22;46342;49.046;11.920;2023-07-30T10:46:18;22.70;73.40
60495;DHT22;46342;49.046;11.920;2023-07-30T10:48:45;22.80;73.50
60495;DHT22;46342;49.046;11.920;2023-07-30T10:51:16;22.00;92.00
60495;DHT22;46342;49.046;11.920;2023-07-30T10:53:42;23.10;90.40
60495;DHT22;46342;49.046;11.920;2023-07-30T10:56:09;22.40;91.50
60495;DHT22;46342;49.046;11.920;2023-07-30T10:58:36;23.50;94.30
60495;DHT22;46342;49.046;11.920;2023-07-30T11:01:03;23.10;72.80
60495;DHT22;46342;49.046;11.920;2023-07-30T11:05:57;23.20;72.40
60495;DHT22;46342;49.046;11.920;2023-07-30T11:10:58;23.30;72.80
60495;DHT22;46342;49.046;11.920;2023-07-30T11:13:25;23.30;72.80
60495;DHT22;46342;49.046;11.920;2023-07-30T11:15:50;23.30;72.70
60495;DHT22;46342;49.046;11.920;2023-07-30T11:18:16;23.40;73.10
60495;DHT22;46342;49.046;11.920;2023-07-30T11:20:42;23.40;73.50
60495;DHT22;46342;49.046;11.920;2023-07-30T11:23:23;23.50;73.90
60495;DHT22;46342;49.046;11.920;2023-07-30T11:25:49;23.60;74.50
60495;DHT22;46342;49.046;11.920;2023-07-30T11:28:37;23.70;74.30
60495;DHT22;46342;49.046;11.920;2023-07-30T11:31:06;23.80;74.70
60495;DHT22;46342;49.046;11.920;2023-07-30T11:33:35;23.90;74.20
60495;DHT22;46342;49.046;11.920;2023-07-30T11:36:02;24.00;73.90
60495;DHT22;46342;49.046;11.920;2023-07-30T11:38:30;24.10;73.60
60495;DHT22;46342;49.046;11.920;2023-07-30T11:40:57;24.20;73.00
60495;DHT22;46342;49.046;11.920;2023-07-30T11:43:23;24.20;72.40
60495;DHT22;46342;49.046;11.920;2023-07-30T11:46:03;24.20;71.70
60495;DHT22;46342;49.046;11.920;2023-07-30T11:48:30;24.20;70.70
60495;DHT22;46342;49.046;11.920;2023-07-30T11:50:56;24.20;69.60
60495;DHT22;46342;49.046;11.920;2023-07-30T11:53:21;24.10;68.90
60495;DHT22;46342;49.046;11.920;2023-07-30T11:55:47;23.90;68.60
60495;DHT22;46342;49.046;11.920;2023-07-30T11:58:13;23.80;68.80
60495;DHT22;46342;49.046;11.920;2023-07-30T12:00:40;23.70;68.90
60495;DHT22;46342;49.046;11.920;2023-07-30T12:03:11;23.50;68.90
60495;DHT22;46342;49.046;11.920;2023-07-30T12:05:38;23.50;69.50
60495;DHT22;46342;49.046;11.920;2023-07-30T12:08:05;23.40;69.60
60495;DHT22;46342;49.046;11.920;2023-07-30T12:10:47;23.30;70.00
60495;DHT22;46342;49.046;11.920;2023-07-30T12:13:15;23.40;70.30
60495;DHT22;46342;49.046;11.920;2023-07-30T12:15:54;23.30;70.30
60495;DHT22;46342;49.046;11.920;2023-07-30T12:18:21;23.30;70.50
60495;DHT22;46342;49.046;11.920;2023-07-30T12:20:47;23.30;70.80
60495;DHT22;46342;49.046;11.920;2023-07-30T12:23:13;23.30;71.40
60495;DHT22;46342;49.046;11.920;2023-07-30T12:25:39;23.30;71.50
60495;DHT22;46342;49.046;11.920;2023-07-30T12:28:05;23.30;71.50
60495;DHT22;46342;49.046;11.920;2023-07-30T12:30:30;23.30;71.50
60495;DHT22;46342;49.046;11.920;2023-07-30T12:32:56;23.30;71.70
60495;DHT22;46342;49.046;11.920;2023-07-30T12:35:23;23.40;71.90
60495;DHT22;46342;49.046;11.920;2023-07-30T12:37:49;23.40;71.90
60495;DHT22;46342;49.046;11.920;2023-07-30T12:40:14;23.40;72.10
60495;DHT22;46342;49.046;11.920;2023-07-30T12:42:41;23.40;72.00
60495;DHT22;46342;49.046;11.920;2023-07-30T12:45:06;23.50;72.00
60495;DHT22;46342;49.046;11.920;2023-07-30T12:47:32;23.50;71.60
60495;DHT22;46342;49.046;11.920;2023-07-30T12:50:00;23.50;71.40
60495;DHT22;46342;49.046;11.920;2023-07-30T12:52:26;23.50;71.20
60495;DHT22;46342;49.046;11.920;2023-07-30T12:54:52;23.60;71.00
60495;DHT22;46342;49.046;11.920;2023-07-30T12:57:18;23.70;71.30
60495;DHT22;46342;49.046;11.920;2023-07-30T12:59:43;23.70;71.00
60495;DHT22;46342;49.046;11.920;2023-07-30T13:02:09;23.70;70.90
60495;DHT22;46342;49.046;11.920;2023-07-30T13:04:34;23.70;70.50
60495;DHT22;46342;49.046;11.920;2023-07-30T13:07:00;23.70;70.30
60495;DHT22;46342;49.046;11.920;2023-07-30T13:09:25;23.70;70.10
60495;DHT22;46342;49.046;11.920;2023-07-30T13:11:51;23.70;69.80
60495;DHT22;46342;49.046;11.920;2023-07-30T13:14:16;23.60;69.50
60495;DHT22;46342;49.046;11.920;2023-07-30T13:16:42;23.60;69.50
60495;DHT22;46342;49.046;11.920;2023-07-30T13:19:08;23.60;69.50
60495;DHT22;46342;49.046;11.920;2023-07-30T13:21:33;23.50;69.50
60495;DHT22;46342;49.046;11.920;2023-07-30T13:23:59;23.50;69.60
60495;DHT22;46342;49.046;11.920;2023-07-30T13:26:24;23.50;70.90
60495;DHT22;46342;49.046;11.920;2023-07-30T13:28:50;23.50;70.10
60495;DHT22;46342;49.046;11.920;2023-07-30T13:31:15;23.50;70.00
60495;DHT22;46342;49.046;11.920;2023-07-30T13:33:41;23.50;69.60
60495;DHT22;46342;49.046;11.920;2023-07-30T13:36:07;23.50;69.30
60495;DHT22;46342;49.046;11.920;2023-07-30T13:38:34;23.50;69.40
60495;DHT22;46342;49.046;11.920;2023-07-30T13:40:59;23.50;69.30
60495;DHT22;46342;49.046;11.920;2023-07-30T13:43:25;23.60;69.50
60495;DHT22;46342;49.046;11.920;2023-07-30T13:45:50;23.60;69.50
60495;DHT22;46342;49.046;11.920;2023-07-30T13:48:17;23.70;69.40
60495;DHT22;46342;49.046;11.920;2023-07-30T13:50:43;23.80;69.50
60495;DHT22;46342;49.046;11.920;2023-07-30T13:53:08;23.80;69.40
60495;DHT22;46342;49.046;11.920;2023-07-30T13:55:34;23.90;69.50
60495;DHT22;46342;49.046;11.920;2023-07-30T13:57:59;24.00;69.50
60495;DHT22;46342;49.046;11.920;2023-07-30T14:00:25;24.10;69.20
60495;DHT22;46342;49.046;11.920;2023-07-30T14:02:50;24.20;69.00
60495;DHT22;46342;49.046;11.920;2023-07-30T14:05:18;24.30;68.30
60495;DHT22;46342;49.046;11.920;2023-07-30T14:07:43;24.40;68.10
60495;DHT22;46342;49.046;11.920;2023-07-30T14:10:10;24.50;67.80
60495;DHT22;46342;49.046;11.920;2023-07-30T14:12:36;24.60;68.00
60495;DHT22;46342;49.046;11.920;2023-07-30T14:15:02;24.60;67.10
60495;DHT22;46342;49.046;11.920;2023-07-30T14:17:28;24.70;66.70
60495;DHT22;46342;49.046;11.920;2023-07-30T14:19:53;24.70;66.60
60495;DHT22;46342;49.046;11.920;2023-07-30T14:22:21;24.80;66.50
60495;DHT22;46342;49.046;11.920;2023-07-30T14:24:46;24.90;66.30
60495;DHT22;46342;49.046;11.920;2023-07-30T14:27:12;24.90;65.80
60495;DHT22;46342;49.046;11.920;2023-07-30T14:29:37;25.00;64.90
60495;DHT22;46342;49.046;11.920;2023-07-30T14:32:03;25.00;64.50
60495;DHT22;46342;49.046;11.920;2023-07-30T14:34:29;25.10;64.30
60495;DHT22;46342;49.046;11.920;2023-07-30T14:36:55;25.10;64.00
60495;DHT22;46342;49.046;11.920;2023-07-30T14:39:20;25.20;63.80
60495;DHT22;46342;49.046;11.920;2023-07-30T14:41:46;25.20;63.30
60495;DHT22;46342;49.046;11.920;2023-07-30T14:44:11;25.30;63.20
60495;DHT22;46342;49.046;11.920;2023-07-30T14:46:37;25.30;62.50
60495;DHT22;46342;49.046;11.920;2023-07-30T14:49:02;25.40;61.60
60495;DHT22;46342;49.046;11.920;2023-07-30T14:51:28;25.30;60.90
60495;DHT22;46342;49.046;11.920;2023-07-30T14:53:53;25.40;61.00
60495;DHT22;46342;49.046;11.920;2023-07-30T14:56:19;25.40;60.70
60495;DHT22;46342;49.046;11.920;2023-07-30T14:58:44;25.40;60.60
60495;DHT22;46342;49.046;11.920;2023-07-30T15:01:10;25.40;60.00
60495;DHT22;46342;49.046;11.920;2023-07-30T15:03:36;25.50;59.80
60495;DHT22;46342;49.046;11.920;2023-07-30T15:06:02;25.50;59.70
60495;DHT22;46342;49.046;11.920;2023-07-30T15:08:28;25.50;59.50
60495;DHT22;46342;49.046;11.920;2023-07-30T15:10:55;25.50;59.30
60495;DHT22;46342;49.046;11.920;2023-07-30T15:13:21;25.50;59.20
60495;DHT22;46342;49.046;11.920;2023-07-30T15:15:48;25.60;59.10
60495;DHT22;46342;49.046;11.920;2023-07-30T15:18:14;25.60;59.00
60495;DHT22;46342;49.046;11.920;2023-07-30T15:20:40;25.70;58.70
60495;DHT22;46342;49.046;11.920;2023-07-30T15:23:06;25.70;58.40
60495;DHT22;46342;49.046;11.920;2023-07-30T15:25:32;25.70;57.80
60495;DHT22;46342;49.046;11.920;2023-07-30T15:27:57;25.80;57.70
60495;DHT22;46342;49.046;11.920;2023-07-30T15:30:26;25.80;57.50
60495;DHT22;46342;49.046;11.920;2023-07-30T15:32:51;25.80;57.40